sensor_id;sensor_type;location;lat;lon;timestamp;P1;durP1;ratioP1;P2;durP2;ratioP2
17842;SDS011;69286;48.222;16.332;2023-04-29T00:01:39;13.60;;;9.90;;
17842;SDS011;69286;48.222;16.332;2023-04-29T00:04:05;14.80;;;9.70;;
17842;SDS011;69286;48.222;16.332;2023-04-29T00:06:33;13.73;;;9.63;;
17842;SDS011;69286;48.222;16.332;2023-04-29T00:09:00;13.37;;;9.27;;
17842;SDS011;69286;48.222;16.332;2023-04-29T00:11:28;12.53;;;8.57;;
17842;SDS011;69286;48.222;16.332;2023-04-29T00:13:57;15.80;;;10.03;;
17842;SDS011;69286;48.222;16.332;2023-04-29T00:16:24;15.77;;;10.03;;
17842;SDS011;69286;48.222;16.332;2023-04-29T00:18:51;12.73;;;9.43;;
17842;SDS011;69286;48.222;16.332;2023-04-29T00:21:18;12.80;;;9.30;;
17842;SDS011;69286;48.222;16.332;2023-04-29T00:23:45;13.73;;;9.10;;
17842;SDS011;69286;48.222;16.332;2023-04-29T00:26:12;13.57;;;9.40;;
17842;SDS011;69286;48.222;16.332;2023-04-29T00:28:39;12.63;;;9.50;;
17842;SDS011;69286;48.222;16.332;2023-04-29T00:31:08;12.10;;;8.70;;
17842;SDS011;69286;48.222;16.332;2023-04-29T00:33:34;13.60;;;9.90;;
17842;SDS011;69286;48.222;16.332;2023-04-29T00:36:02;18.33;;;10.93;;
17842;SDS011;69286;48.222;16.332;2023-04-29T00:38:29;15.60;;;10.10;;
17842;SDS011;69286;48.222;16.332;2023-04-29T00:40:56;15.57;;;10.80;;
17842;SDS011;69286;48.222;16.332;2023-04-29T00:43:23;15.60;;;11.23;;
17842;SDS011;69286;48.222;16.332;2023-04-29T00:45:50;14.30;;;10.73;;
17842;SDS011;69286;48.222;16.332;2023-04-29T00:48:19;17.07;;;11.63;;
17842;SDS011;69286;48.222;16.332;2023-04-29T00:50:46;17.17;;;10.73;;
17842;SDS011;69286;48.222;16.332;2023-04-29T00:53:13;19.17;;;11.00;;
17842;SDS011;69286;48.222;16.332;2023-04-29T00:55:40;19.20;;;13.20;;
17842;SDS011;69286;48.222;16.332;2023-04-29T00:58:08;21.90;;;12.93;;
17842;SDS011;69286;48.222;16.332;2023-04-29T01:00:35;20.00;;;13.37;;
17842;SDS011;69286;48.222;16.332;2023-04-29T01:03:03;19.17;;;12.93;;
17842;SDS011;69286;48.222;16.332;2023-04-29T01:05:32;20.07;;;12.87;;
17842;SDS011;69286;48.222;16.332;2023-04-29T01:08:03;17.77;;;12.07;;
17842;SDS011;69286;48.222;16.332;2023-04-29T01:10:40;16.70;;;11.43;;
17842;SDS011;69286;48.222;16.332;2023-04-29T01:13:13;18.77;;;11.50;;
17842;SDS011;69286;48.222;16.332;2023-04-29T01:15:45;18.80;;;11.87;;
17842;SDS011;69286;48.222;16.332;2023-04-29T01:18:17;17.50;;;11.20;;
17842;SDS011;69286;48.222;16.332;2023-04-29T01:20:50;17.27;;;10.83;;
17842;SDS011;69286;48.222;16.332;2023-04-29T01:23:17;18.80;;;12.03;;
17842;SDS011;69286;48.222;16.332;2023-04-29T01:25:46;15.57;;;11.73;;
17842;SDS011;69286;48.222;16.332;2023-04-29T01:28:15;19.90;;;14.23;;
17842;SDS011;69286;48.222;16.332;2023-04-29T01:30:51;20.07;;;14.67;;
17842;SDS011;69286;48.222;16.332;2023-04-29T01:33:28;22.00;;;14.53;;
17842;SDS011;69286;48.222;16.332;2023-04-29T01:36:07;20.60;;;14.47;;
17842;SDS011;69286;48.222;16.332;2023-04-29T01:38:43;19.13;;;14.33;;
17842;SDS011;69286;48.222;16.332;2023-04-29T01:41:17;25.17;;;15.23;;
17842;SDS011;69286;48.222;16.332;2023-04-29T01:43:49;21.47;;;14.80;;
17842;SDS011;69286;48.222;16.332;2023-04-29T01:46:17;23.00;;;14.80;;
17842;SDS011;69286;48.222;16.332;2023-04-29T01:48:44;20.57;;;13.73;;
17842;SDS011;69286;48.222;16.332;2023-04-29T01:51:11;20.30;;;13.70;;
17842;SDS011;69286;48.222;16.332;2023-04-29T01:53:39;20.47;;;14.57;;
17842;SDS011;69286;48.222;16.332;2023-04-29T01:56:06;24.67;;;14.50;;
17842;SDS011;69286;48.222;16.332;2023-04-29T01:58:34;17.93;;;14.00;;
17842;SDS011;69286;48.222;16.332;2023-04-29T02:01:01;19.70;;;14.43;;
17842;SDS011;69286;48.222;16.332;2023-04-29T02:03:28;21.20;;;14.50;;
17842;SDS011;69286;48.222;16.332;2023-04-29T02:05:55;26.47;;;15.57;;
17842;SDS011;69286;48.222;16.332;2023-04-29T02:08:23;26.83;;;16.87;;
17842;SDS011;69286;48.222;16.332;2023-04-29T02:10:50;25.80;;;16.77;;
17842;SDS011;69286;48.222;16.332;2023-04-29T02:13:18;26.67;;;17.57;;
17842;SDS011;69286;48.222;16.332;2023-04-29T02:15:46;23.37;;;16.40;;
17842;SDS011;69286;48.222;16.332;2023-04-29T02:18:13;23.57;;;16.77;;
17842;SDS011;69286;48.222;16.332;2023-04-29T02:20:40;28.63;;;17.07;;
17842;SDS011;69286;48.222;16.332;2023-04-29T02:23:08;25.67;;;17.27;;
17842;SDS011;69286;48.222;16.332;2023-04-29T02:25:35;23.70;;;17.13;;
17842;SDS011;69286;48.222;16.332;2023-04-29T02:28:02;23.60;;;17.47;;
17842;SDS011;69286;48.222;16.332;2023-04-29T02:30:29;24.77;;;17.50;;
17842;SDS011;69286;48.222;16.332;2023-04-29T02:32:57;27.07;;;18.43;;
17842;SDS011;69286;48.222;16.332;2023-04-29T02:35:24;24.43;;;16.63;;
17842;SDS011;69286;48.222;16.332;2023-04-29T02:37:51;24.50;;;17.37;;
17842;SDS011;69286;48.222;16.332;2023-04-29T02:40:18;23.97;;;17.27;;
17842;SDS011;69286;48.222;16.332;2023-04-29T02:42:45;27.70;;;18.00;;
17842;SDS011;69286;48.222;16.332;2023-04-29T02:45:12;25.90;;;17.50;;
17842;SDS011;69286;48.222;16.332;2023-04-29T02:47:39;25.23;;;17.13;;
17842;SDS011;69286;48.222;16.332;2023-04-29T02:50:08;25.47;;;17.00;;
17842;SDS011;69286;48.222;16.332;2023-04-29T02:52:35;28.10;;;18.57;;
17842;SDS011;69286;48.222;16.332;2023-04-29T02:55:02;29.17;;;18.70;;
17842;SDS011;69286;48.222;16.332;2023-04-29T02:57:30;27.43;;;19.03;;
17842;SDS011;69286;48.222;16.332;2023-04-29T02:59:58;26.87;;;18.83;;
17842;SDS011;69286;48.222;16.332;2023-04-29T03:02:25;26.83;;;18.30;;
17842;SDS011;69286;48.222;16.332;2023-04-29T03:04:52;27.13;;;18.00;;
17842;SDS011;69286;48.222;16.332;2023-04-29T03:07:21;24.13;;;17.27;;
17842;SDS011;69286;48.222;16.332;2023-04-29T03:09:47;25.57;;;18.47;;
17842;SDS011;69286;48.222;16.332;2023-04-29T03:12:14;27.97;;;18.50;;
17842;SDS011;69286;48.222;16.332;2023-04-29T03:14:41;29.30;;;20.03;;
17842;SDS011;69286;48.222;16.332;2023-04-29T03:17:08;30.33;;;19.77;;
17842;SDS011;69286;48.222;16.332;2023-04-29T03:19:36;30.77;;;19.87;;
17842;SDS011;69286;48.222;16.332;2023-04-29T03:22:03;27.77;;;19.40;;
17842;SDS011;69286;48.222;16.332;2023-04-29T03:24:31;27.90;;;19.23;;
17842;SDS011;69286;48.222;16.332;2023-04-29T03:26:58;29.43;;;19.00;;
17842;SDS011;69286;48.222;16.332;2023-04-29T03:29:25;26.73;;;18.60;;
17842;SDS011;69286;48.222;16.332;2023-04-29T03:31:52;27.40;;;18.33;;
17842;SDS011;69286;48.222;16.332;2023-04-29T03:34:21;28.53;;;17.80;;
17842;SDS011;69286;48.222;16.332;2023-04-29T03:36:48;27.27;;;17.33;;
17842;SDS011;69286;48.222;16.332;2023-04-29T03:39:15;20.73;;;15.10;;
17842;SDS011;69286;48.222;16.332;2023-04-29T03:41:44;22.77;;;16.23;;
17842;SDS011;69286;48.222;16.332;2023-04-29T03:44:12;26.10;;;16.93;;
17842;SDS011;69286;48.222;16.332;2023-04-29T03:46:39;25.33;;;16.13;;
17842;SDS011;69286;48.222;16.332;2023-04-29T03:49:06;23.40;;;14.53;;
17842;SDS011;69286;48.222;16.332;2023-04-29T03:51:33;21.60;;;14.57;;
17842;SDS011;69286;48.222;16.332;2023-04-29T03:54:00;21.77;;;14.97;;
17842;SDS011;69286;48.222;16.332;2023-04-29T03:56:27;23.33;;;15.73;;
17842;SDS011;69286;48.222;16.332;2023-04-29T03:58:56;26.50;;;15.73;;
17842;SDS011;69286;48.222;16.332;2023-04-29T04:01:23;23.40;;;15.40;;
17842;SDS011;69286;48.222;16.332;2023-04-29T04:03:51;22.37;;;14.87;;
17842;SDS011;69286;48.222;16.332;2023-04-29T04:06:18;26.83;;;18.00;;
17842;SDS011;69286;48.222;16.332;2023-04-29T04:08:45;27.57;;;18.47;;
17842;SDS011;69286;48.222;16.332;2023-04-29T04:11:12;31.67;;;18.83;;
17842;SDS011;69286;48.222;16.332;2023-04-29T04:13:40;34.03;;;20.87;;
17842;SDS011;69286;48.222;16.332;2023-04-29T04:16:08;32.60;;;20.33;;
17842;SDS011;69286;48.222;16.332;2023-04-29T04:18:36;36.60;;;22.90;;
17842;SDS011;69286;48.222;16.332;2023-04-29T04:21:06;34.87;;;21.87;;
17842;SDS011;69286;48.222;16.332;2023-04-29T04:23:34;35.90;;;21.97;;
17842;SDS011;69286;48.222;16.332;2023-04-29T04:26:02;20.20;;;13.23;;
17842;SDS011;69286;48.222;16.332;2023-04-29T04:28:29;20.37;;;13.37;;
17842;SDS011;69286;48.222;16.332;2023-04-29T04:30:56;16.43;;;11.10;;
17842;SDS011;69286;48.222;16.332;2023-04-29T04:33:24;14.03;;;9.83;;
17842;SDS011;69286;48.222;16.332;2023-04-29T04:35:51;13.10;;;9.60;;
17842;SDS011;69286;48.222;16.332;2023-04-29T04:38:18;10.67;;;8.33;;
17842;SDS011;69286;48.222;16.332;2023-04-29T04:40:46;10.63;;;8.70;;
17842;SDS011;69286;48.222;16.332;2023-04-29T04:43:13;11.27;;;8.10;;
17842;SDS011;69286;48.222;16.332;2023-04-29T04:45:40;13.13;;;8.80;;
17842;SDS011;69286;48.222;16.332;2023-04-29T04:48:07;11.90;;;8.23;;
17842;SDS011;69286;48.222;16.332;2023-04-29T04:50:35;17.10;;;9.80;;
17842;SDS011;69286;48.222;16.332;2023-04-29T04:53:02;26.10;;;15.30;;
17842;SDS011;69286;48.222;16.332;2023-04-29T04:55:29;25.60;;;15.53;;
17842;SDS011;69286;48.222;16.332;2023-04-29T04:57:57;26.67;;;17.43;;
17842;SDS011;69286;48.222;16.332;2023-04-29T05:00:24;24.03;;;15.40;;
17842;SDS011;69286;48.222;16.332;2023-04-29T05:02:51;26.73;;;17.03;;
17842;SDS011;69286;48.222;16.332;2023-04-29T05:05:18;26.30;;;17.00;;
17842;SDS011;69286;48.222;16.332;2023-04-29T05:07:46;23.43;;;15.67;;
17842;SDS011;69286;48.222;16.332;2023-04-29T05:10:13;27.80;;;18.00;;
17842;SDS011;69286;48.222;16.332;2023-04-29T05:12:41;26.23;;;18.17;;
17842;SDS011;69286;48.222;16.332;2023-04-29T05:15:08;28.97;;;19.40;;
17842;SDS011;69286;48.222;16.332;2023-04-29T05:17:35;31.23;;;19.57;;
17842;SDS011;69286;48.222;16.332;2023-04-29T05:20:03;31.77;;;21.60;;
17842;SDS011;69286;48.222;16.332;2023-04-29T05:22:31;35.57;;;23.63;;
17842;SDS011;69286;48.222;16.332;2023-04-29T05:24:59;38.13;;;24.13;;
17842;SDS011;69286;48.222;16.332;2023-04-29T05:27:27;38.07;;;24.00;;
17842;SDS011;69286;48.222;16.332;2023-04-29T05:29:54;41.43;;;24.10;;
17842;SDS011;69286;48.222;16.332;2023-04-29T05:32:21;38.67;;;24.47;;
17842;SDS011;69286;48.222;16.332;2023-04-29T05:34:48;35.10;;;24.23;;
17842;SDS011;69286;48.222;16.332;2023-04-29T05:37:16;37.77;;;24.70;;
17842;SDS011;69286;48.222;16.332;2023-04-29T05:39:43;41.47;;;25.67;;
17842;SDS011;69286;48.222;16.332;2023-04-29T05:42:11;42.07;;;25.40;;
17842;SDS011;69286;48.222;16.332;2023-04-29T05:44:38;36.10;;;24.73;;
17842;SDS011;69286;48.222;16.332;2023-04-29T05:47:05;40.80;;;25.37;;
17842;SDS011;69286;48.222;16.332;2023-04-29T05:49:32;40.23;;;25.00;;
17842;SDS011;69286;48.222;16.332;2023-04-29T05:51:59;34.40;;;22.17;;
17842;SDS011;69286;48.222;16.332;2023-04-29T05:54:30;31.60;;;20.03;;
17842;SDS011;69286;48.222;16.332;2023-04-29T05:56:57;27.17;;;18.60;;
17842;SDS011;69286;48.222;16.332;2023-04-29T05:59:27;23.47;;;16.80;;
17842;SDS011;69286;48.222;16.332;2023-04-29T06:01:55;21.90;;;14.63;;
17842;SDS011;69286;48.222;16.332;2023-04-29T06:04:22;16.00;;;11.67;;
17842;SDS011;69286;48.222;16.332;2023-04-29T06:06:48;15.03;;;11.00;;
17842;SDS011;69286;48.222;16.332;2023-04-29T06:09:16;15.77;;;11.40;;
17842;SDS011;69286;48.222;16.332;2023-04-29T06:11:44;16.20;;;11.77;;
17842;SDS011;69286;48.222;16.332;2023-04-29T06:14:11;16.07;;;12.20;;
17842;SDS011;69286;48.222;16.332;2023-04-29T06:16:39;19.20;;;11.20;;
17842;SDS011;69286;48.222;16.332;2023-04-29T06:19:06;15.57;;;12.23;;
17842;SDS011;69286;48.222;16.332;2023-04-29T06:21:33;19.80;;;13.67;;
17842;SDS011;69286;48.222;16.332;2023-04-29T06:24:00;21.43;;;13.40;;
17842;SDS011;69286;48.222;16.332;2023-04-29T06:26:27;19.70;;;13.73;;
17842;SDS011;69286;48.222;16.332;2023-04-29T06:28:54;17.70;;;12.93;;
17842;SDS011;69286;48.222;16.332;2023-04-29T06:31:21;21.03;;;13.73;;
17842;SDS011;69286;48.222;16.332;2023-04-29T06:33:49;20.80;;;14.00;;
17842;SDS011;69286;48.222;16.332;2023-04-29T06:36:17;18.03;;;13.63;;
17842;SDS011;69286;48.222;16.332;2023-04-29T06:38:44;19.37;;;14.17;;
17842;SDS011;69286;48.222;16.332;2023-04-29T06:41:11;19.23;;;14.00;;
17842;SDS011;69286;48.222;16.332;2023-04-29T06:43:38;18.70;;;14.20;;
17842;SDS011;69286;48.222;16.332;2023-04-29T06:46:07;20.37;;;13.90;;
17842;SDS011;69286;48.222;16.332;2023-04-29T06:48:34;17.83;;;12.90;;
17842;SDS011;69286;48.222;16.332;2023-04-29T06:51:03;16.87;;;11.80;;
17842;SDS011;69286;48.222;16.332;2023-04-29T06:53:30;14.60;;;11.47;;
17842;SDS011;69286;48.222;16.332;2023-04-29T06:55:57;15.80;;;10.73;;
17842;SDS011;69286;48.222;16.332;2023-04-29T06:58:24;13.97;;;9.60;;
17842;SDS011;69286;48.222;16.332;2023-04-29T07:00:50;14.40;;;9.30;;
17842;SDS011;69286;48.222;16.332;2023-04-29T07:03:17;11.20;;;7.77;;
17842;SDS011;69286;48.222;16.332;2023-04-29T07:05:44;10.30;;;7.80;;
17842;SDS011;69286;48.222;16.332;2023-04-29T07:08:13;9.27;;;7.27;;
17842;SDS011;69286;48.222;16.332;2023-04-29T07:10:40;10.60;;;7.07;;
17842;SDS011;69286;48.222;16.332;2023-04-29T07:13:07;10.57;;;8.00;;
17842;SDS011;69286;48.222;16.332;2023-04-29T07:15:34;10.47;;;7.23;;
17842;SDS011;69286;48.222;16.332;2023-04-29T07:18:02;11.93;;;7.30;;
17842;SDS011;69286;48.222;16.332;2023-04-29T07:20:30;15.27;;;8.40;;
17842;SDS011;69286;48.222;16.332;2023-04-29T07:22:56;10.97;;;8.53;;
17842;SDS011;69286;48.222;16.332;2023-04-29T07:25:26;10.97;;;7.73;;
17842;SDS011;69286;48.222;16.332;2023-04-29T07:27:53;11.77;;;8.67;;
17842;SDS011;69286;48.222;16.332;2023-04-29T07:30:20;12.13;;;7.80;;
17842;SDS011;69286;48.222;16.332;2023-04-29T07:32:47;10.23;;;7.43;;
17842;SDS011;69286;48.222;16.332;2023-04-29T07:35:14;11.37;;;7.67;;
17842;SDS011;69286;48.222;16.332;2023-04-29T07:37:41;11.63;;;7.77;;
17842;SDS011;69286;48.222;16.332;2023-04-29T07:40:10;10.83;;;7.77;;
17842;SDS011;69286;48.222;16.332;2023-04-29T07:42:38;9.87;;;7.07;;
17842;SDS011;69286;48.222;16.332;2023-04-29T07:45:05;8.93;;;6.40;;
17842;SDS011;69286;48.222;16.332;2023-04-29T07:47:33;7.07;;;6.27;;
17842;SDS011;69286;48.222;16.332;2023-04-29T07:50:00;11.10;;;7.33;;
17842;SDS011;69286;48.222;16.332;2023-04-29T07:52:27;11.93;;;7.53;;
17842;SDS011;69286;48.222;16.332;2023-04-29T07:54:54;8.57;;;7.20;;
17842;SDS011;69286;48.222;16.332;2023-04-29T07:57:21;7.30;;;6.37;;
17842;SDS011;69286;48.222;16.332;2023-04-29T07:59:51;9.60;;;6.33;;
17842;SDS011;69286;48.222;16.332;2023-04-29T08:02:18;9.73;;;6.23;;
17842;SDS011;69286;48.222;16.332;2023-04-29T08:04:45;7.23;;;5.83;;
17842;SDS011;69286;48.222;16.332;2023-04-29T08:07:12;6.67;;;5.97;;
17842;SDS011;69286;48.222;16.332;2023-04-29T08:09:39;8.63;;;4.67;;
17842;SDS011;69286;48.222;16.332;2023-04-29T08:12:07;5.80;;;4.90;;
17842;SDS011;69286;48.222;16.332;2023-04-29T08:14:34;5.97;;;4.67;;
17842;SDS011;69286;48.222;16.332;2023-04-29T08:17:02;7.30;;;5.10;;
17842;SDS011;69286;48.222;16.332;2023-04-29T08:19:29;5.77;;;4.60;;
17842;SDS011;69286;48.222;16.332;2023-04-29T08:21:56;5.43;;;4.93;;
17842;SDS011;69286;48.222;16.332;2023-04-29T08:24:25;10.30;;;5.33;;
17842;SDS011;69286;48.222;16.332;2023-04-29T08:26:53;7.23;;;5.00;;
17842;SDS011;69286;48.222;16.332;2023-04-29T08:29:20;6.23;;;5.23;;
17842;SDS011;69286;48.222;16.332;2023-04-29T08:31:47;4.97;;;4.43;;
17842;SDS011;69286;48.222;16.332;2023-04-29T08:34:16;7.50;;;4.70;;
17842;SDS011;69286;48.222;16.332;2023-04-29T08:36:43;6.27;;;5.10;;
17842;SDS011;69286;48.222;16.332;2023-04-29T08:39:11;7.53;;;5.00;;
17842;SDS011;69286;48.222;16.332;2023-04-29T08:41:38;6.33;;;5.33;;
17842;SDS011;69286;48.222;16.332;2023-04-29T08:44:05;6.67;;;4.90;;
17842;SDS011;69286;48.222;16.332;2023-04-29T08:46:32;5.47;;;4.83;;
17842;SDS011;69286;48.222;16.332;2023-04-29T08:49:00;6.23;;;5.13;;
17842;SDS011;69286;48.222;16.332;2023-04-29T08:51:31;6.23;;;4.70;;
17842;SDS011;69286;48.222;16.332;2023-04-29T08:53:59;6.20;;;5.20;;
17842;SDS011;69286;48.222;16.332;2023-04-29T08:56:25;9.30;;;5.70;;
17842;SDS011;69286;48.222;16.332;2023-04-29T08:58:55;7.53;;;5.60;;
17842;SDS011;69286;48.222;16.332;2023-04-29T09:01:24;6.93;;;6.23;;
17842;SDS011;69286;48.222;16.332;2023-04-29T09:03:53;7.83;;;5.60;;
17842;SDS011;69286;48.222;16.332;2023-04-29T09:06:27;8.10;;;6.10;;
17842;SDS011;69286;48.222;16.332;2023-04-29T09:08:58;8.20;;;5.63;;
17842;SDS011;69286;48.222;16.332;2023-04-29T09:11:27;8.20;;;6.23;;
17842;SDS011;69286;48.222;16.332;2023-04-29T09:13:57;11.70;;;6.70;;
17842;SDS011;69286;48.222;16.332;2023-04-29T09:16:33;9.40;;;6.40;;
17842;SDS011;69286;48.222;16.332;2023-04-29T09:19:08;8.17;;;5.90;;
17842;SDS011;69286;48.222;16.332;2023-04-29T09:21:40;7.80;;;5.60;;
17842;SDS011;69286;48.222;16.332;2023-04-29T09:24:25;8.77;;;5.10;;
17842;SDS011;69286;48.222;16.332;2023-04-29T09:26:55;5.47;;;3.73;;
17842;SDS011;69286;48.222;16.332;2023-04-29T09:29:26;1.80;;;1.70;;
17842;SDS011;69286;48.222;16.332;2023-04-29T09:31:59;1.93;;;1.40;;
17842;SDS011;69286;48.222;16.332;2023-04-29T09:34:46;1.80;;;1.40;;
17842;SDS011;69286;48.222;16.332;2023-04-29T09:37:23;1.77;;;1.30;;
17842;SDS011;69286;48.222;16.332;2023-04-29T09:39:55;1.43;;;1.23;;
17842;SDS011;69286;48.222;16.332;2023-04-29T09:42:22;1.60;;;1.30;;
17842;SDS011;69286;48.222;16.332;2023-04-29T09:44:49;1.30;;;1.20;;
17842;SDS011;69286;48.222;16.332;2023-04-29T09:47:16;3.97;;;1.20;;
17842;SDS011;69286;48.222;16.332;2023-04-29T09:49:43;2.90;;;1.17;;
17842;SDS011;69286;48.222;16.332;2023-04-29T09:52:11;2.27;;;1.20;;
17842;SDS011;69286;48.222;16.332;2023-04-29T09:54:41;1.87;;;0.87;;
17842;SDS011;69286;48.222;16.332;2023-04-29T09:57:11;2.43;;;1.00;;
17842;SDS011;69286;48.222;16.332;2023-04-29T09:59:40;1.13;;;1.00;;
17842;SDS011;69286;48.222;16.332;2023-04-29T10:02:09;2.10;;;1.30;;
17842;SDS011;69286;48.222;16.332;2023-04-29T10:04:40;1.63;;;1.00;;
17842;SDS011;69286;48.222;16.332;2023-04-29T10:07:11;1.57;;;1.07;;
17842;SDS011;69286;48.222;16.332;2023-04-29T10:09:40;3.53;;;2.20;;
17842;SDS011;69286;48.222;16.332;2023-04-29T10:12:07;2.53;;;1.60;;
17842;SDS011;69286;48.222;16.332;2023-04-29T10:14:37;3.53;;;2.80;;
17842;SDS011;69286;48.222;16.332;2023-04-29T10:17:09;4.13;;;2.23;;
17842;SDS011;69286;48.222;16.332;2023-04-29T10:19:44;2.03;;;1.60;;
17842;SDS011;69286;48.222;16.332;2023-04-29T10:22:18;2.77;;;1.90;;
17842;SDS011;69286;48.222;16.332;2023-04-29T10:24:52;2.40;;;1.53;;
17842;SDS011;69286;48.222;16.332;2023-04-29T10:27:23;1.80;;;1.33;;
17842;SDS011;69286;48.222;16.332;2023-04-29T10:29:52;1.27;;;1.27;;
17842;SDS011;69286;48.222;16.332;2023-04-29T10:32:21;1.30;;;1.20;;
17842;SDS011;69286;48.222;16.332;2023-04-29T10:34:50;1.90;;;1.50;;
17842;SDS011;69286;48.222;16.332;2023-04-29T10:37:21;1.10;;;1.10;;
17842;SDS011;69286;48.222;16.332;2023-04-29T10:39:51;1.30;;;1.20;;
17842;SDS011;69286;48.222;16.332;2023-04-29T10:42:25;1.50;;;1.10;;
17842;SDS011;69286;48.222;16.332;2023-04-29T10:45:22;7.53;;;5.30;;
17842;SDS011;69286;48.222;16.332;2023-04-29T10:53:30;8.33;;;6.77;;
17842;SDS011;69286;48.222;16.332;2023-04-29T10:55:58;8.47;;;6.93;;
17842;SDS011;69286;48.222;16.332;2023-04-29T10:58:36;13.40;;;8.67;;
17842;SDS011;69286;48.222;16.332;2023-04-29T11:01:10;13.20;;;8.37;;
17842;SDS011;69286;48.222;16.332;2023-04-29T11:03:45;11.73;;;8.53;;
17842;SDS011;69286;48.222;16.332;2023-04-29T11:06:14;12.43;;;8.73;;
17842;SDS011;69286;48.222;16.332;2023-04-29T11:08:42;13.97;;;10.07;;
17842;SDS011;69286;48.222;16.332;2023-04-29T11:11:09;11.43;;;8.80;;
17842;SDS011;69286;48.222;16.332;2023-04-29T11:13:38;14.97;;;9.40;;
17842;SDS011;69286;48.222;16.332;2023-04-29T11:16:06;11.33;;;9.00;;
17842;SDS011;69286;48.222;16.332;2023-04-29T11:18:36;11.73;;;9.00;;
17842;SDS011;69286;48.222;16.332;2023-04-29T11:21:30;11.60;;;8.63;;
17842;SDS011;69286;48.222;16.332;2023-04-29T11:23:59;12.10;;;9.30;;
17842;SDS011;69286;48.222;16.332;2023-04-29T11:26:26;10.43;;;8.77;;
17842;SDS011;69286;48.222;16.332;2023-04-29T11:28:53;16.13;;;9.70;;
17842;SDS011;69286;48.222;16.332;2023-04-29T11:31:24;14.63;;;10.70;;
17842;SDS011;69286;48.222;16.332;2023-04-29T11:33:54;13.20;;;9.83;;
17842;SDS011;69286;48.222;16.332;2023-04-29T11:36:21;12.97;;;9.97;;
17842;SDS011;69286;48.222;16.332;2023-04-29T11:38:48;16.40;;;10.87;;
17842;SDS011;69286;48.222;16.332;2023-04-29T11:41:15;16.27;;;11.67;;
17842;SDS011;69286;48.222;16.332;2023-04-29T11:43:44;13.67;;;9.80;;
17842;SDS011;69286;48.222;16.332;2023-04-29T11:46:12;16.63;;;9.93;;
17842;SDS011;69286;48.222;16.332;2023-04-29T11:48:44;14.77;;;9.37;;
17842;SDS011;69286;48.222;16.332;2023-04-29T11:51:14;14.73;;;8.83;;
17842;SDS011;69286;48.222;16.332;2023-04-29T11:53:43;11.50;;;8.07;;
17842;SDS011;69286;48.222;16.332;2023-04-29T11:56:10;11.10;;;8.47;;
17842;SDS011;69286;48.222;16.332;2023-04-29T11:58:37;8.97;;;7.10;;
17842;SDS011;69286;48.222;16.332;2023-04-29T12:01:04;10.37;;;6.10;;
17842;SDS011;69286;48.222;16.332;2023-04-29T12:03:31;7.37;;;6.03;;
17842;SDS011;69286;48.222;16.332;2023-04-29T12:06:00;7.77;;;5.87;;
17842;SDS011;69286;48.222;16.332;2023-04-29T12:08:29;10.70;;;7.30;;
17842;SDS011;69286;48.222;16.332;2023-04-29T12:10:58;11.50;;;6.60;;
17842;SDS011;69286;48.222;16.332;2023-04-29T12:13:26;10.60;;;6.70;;
17842;SDS011;69286;48.222;16.332;2023-04-29T12:15:54;9.17;;;6.83;;
17842;SDS011;69286;48.222;16.332;2023-04-29T12:18:23;14.13;;;7.60;;
17842;SDS011;69286;48.222;16.332;2023-04-29T12:20:51;9.53;;;7.47;;
17842;SDS011;69286;48.222;16.332;2023-04-29T12:23:20;9.00;;;6.80;;
17842;SDS011;69286;48.222;16.332;2023-04-29T12:25:49;11.37;;;7.83;;
17842;SDS011;69286;48.222;16.332;2023-04-29T12:28:18;10.03;;;7.47;;
17842;SDS011;69286;48.222;16.332;2023-04-29T12:30:45;11.13;;;8.33;;
17842;SDS011;69286;48.222;16.332;2023-04-29T12:33:17;12.73;;;7.07;;
17842;SDS011;69286;48.222;16.332;2023-04-29T12:35:46;12.60;;;8.37;;
17842;SDS011;69286;48.222;16.332;2023-04-29T12:38:21;20.30;;;8.60;;
17842;SDS011;69286;48.222;16.332;2023-04-29T12:40:49;12.13;;;8.63;;
17842;SDS011;69286;48.222;16.332;2023-04-29T12:43:16;9.97;;;7.33;;
17842;SDS011;69286;48.222;16.332;2023-04-29T12:45:44;11.93;;;8.80;;
17842;SDS011;69286;48.222;16.332;2023-04-29T12:48:11;15.23;;;10.07;;
17842;SDS011;69286;48.222;16.332;2023-04-29T12:50:38;13.93;;;9.17;;
17842;SDS011;69286;48.222;16.332;2023-04-29T12:53:06;17.97;;;10.60;;
17842;SDS011;69286;48.222;16.332;2023-04-29T12:55:34;16.70;;;10.80;;
17842;SDS011;69286;48.222;16.332;2023-04-29T12:58:04;14.23;;;10.90;;
17842;SDS011;69286;48.222;16.332;2023-04-29T13:00:31;17.97;;;11.73;;
17842;SDS011;69286;48.222;16.332;2023-04-29T13:03:01;15.03;;;11.30;;
17842;SDS011;69286;48.222;16.332;2023-04-29T13:05:29;13.90;;;10.03;;
17842;SDS011;69286;48.222;16.332;2023-04-29T13:07:56;11.30;;;8.37;;
17842;SDS011;69286;48.222;16.332;2023-04-29T13:10:23;12.27;;;8.20;;
17842;SDS011;69286;48.222;16.332;2023-04-29T13:12:50;13.30;;;8.60;;
17842;SDS011;69286;48.222;16.332;2023-04-29T13:15:18;12.03;;;8.30;;
17842;SDS011;69286;48.222;16.332;2023-04-29T13:17:46;13.37;;;8.10;;
17842;SDS011;69286;48.222;16.332;2023-04-29T13:20:13;8.50;;;6.10;;
17842;SDS011;69286;48.222;16.332;2023-04-29T13:22:40;6.83;;;5.20;;
17842;SDS011;69286;48.222;16.332;2023-04-29T13:25:08;4.43;;;3.20;;
17842;SDS011;69286;48.222;16.332;2023-04-29T13:27:36;5.47;;;3.70;;
17842;SDS011;69286;48.222;16.332;2023-04-29T13:30:03;4.07;;;3.00;;
17842;SDS011;69286;48.222;16.332;2023-04-29T13:32:32;3.70;;;2.93;;
17842;SDS011;69286;48.222;16.332;2023-04-29T13:34:59;5.07;;;3.63;;
17842;SDS011;69286;48.222;16.332;2023-04-29T13:37:26;6.30;;;3.80;;
17842;SDS011;69286;48.222;16.332;2023-04-29T13:39:53;6.27;;;3.40;;
17842;SDS011;69286;48.222;16.332;2023-04-29T13:42:20;3.10;;;2.57;;
17842;SDS011;69286;48.222;16.332;2023-04-29T13:44:47;3.30;;;2.10;;
17842;SDS011;69286;48.222;16.332;2023-04-29T13:47:15;11.30;;;3.90;;
17842;SDS011;69286;48.222;16.332;2023-04-29T13:49:43;5.00;;;2.80;;
17842;SDS011;69286;48.222;16.332;2023-04-29T13:52:10;2.87;;;2.40;;
17842;SDS011;69286;48.222;16.332;2023-04-29T13:54:40;5.23;;;3.07;;
17842;SDS011;69286;48.222;16.332;2023-04-29T13:57:07;3.53;;;3.00;;
17842;SDS011;69286;48.222;16.332;2023-04-29T13:59:34;7.30;;;4.13;;
17842;SDS011;69286;48.222;16.332;2023-04-29T14:02:01;6.53;;;3.67;;
17842;SDS011;69286;48.222;16.332;2023-04-29T14:04:29;4.37;;;2.47;;
17842;SDS011;69286;48.222;16.332;2023-04-29T14:06:57;5.47;;;2.70;;
17842;SDS011;69286;48.222;16.332;2023-04-29T14:09:24;7.77;;;3.90;;
17842;SDS011;69286;48.222;16.332;2023-04-29T14:11:51;2.57;;;2.37;;
17842;SDS011;69286;48.222;16.332;2023-04-29T14:14:18;8.10;;;2.40;;
17842;SDS011;69286;48.222;16.332;2023-04-29T14:16:45;4.63;;;3.40;;
17842;SDS011;69286;48.222;16.332;2023-04-29T14:19:12;5.13;;;3.80;;
17842;SDS011;69286;48.222;16.332;2023-04-29T14:21:39;5.27;;;3.37;;
17842;SDS011;69286;48.222;16.332;2023-04-29T14:24:08;5.10;;;3.60;;
17842;SDS011;69286;48.222;16.332;2023-04-29T14:26:35;4.93;;;3.60;;
17842;SDS011;69286;48.222;16.332;2023-04-29T14:29:02;5.43;;;3.50;;
17842;SDS011;69286;48.222;16.332;2023-04-29T14:31:29;3.10;;;2.80;;